createdAt,value
2019-05-09T00:02:40.886Z,9.87
2019-05-09T00:07:46.347Z,9.81
2019-05-09T00:12:53.908Z,9.83
2019-05-09T00:17:58.962Z,9.84
2019-05-09T00:23:04.578Z,9.87
2019-05-09T00:28:10.343Z,9.80
2019-05-09T00:33:17.450Z,9.79
2019-05-09T00:38:24.639Z,9.80
2019-05-09T00:43:30.205Z,9.74
2019-05-09T00:48:38.274Z,9.73
2019-05-09T00:53:45.739Z,9.74
2019-05-09T00:58:53.584Z,9.60
2019-05-09T01:03:58.495Z,9.70
2019-05-09T01:09:05.396Z,9.69
2019-05-09T01:14:11.062Z,9.75
2019-05-09T01:19:16.248Z,9.58
2019-05-09T01:24:23.243Z,9.58
2019-05-09T01:29:30.094Z,9.70
2019-05-09T01:34:36.679Z,9.71
2019-05-09T01:39:43.499Z,9.62
2019-05-09T01:44:49.252Z,9.72
2019-05-09T01:49:54.620Z,9.65
2019-05-09T01:55:00.094Z,9.65
2019-05-09T02:00:09.141Z,9.65
2019-05-09T02:05:14.592Z,9.57
2019-05-09T02:10:20.055Z,9.60
2019-05-09T02:15:34.160Z,9.57
2019-05-09T02:20:40.464Z,9.67
2019-05-09T02:25:45.853Z,9.65
2019-05-09T02:30:54.845Z,9.69
2019-05-09T02:36:02.036Z,9.71
2019-05-09T02:41:08.553Z,9.62
2019-05-09T02:46:18.870Z,9.60
2019-05-09T02:51:23.310Z,9.56
2019-05-09T02:56:29.987Z,9.54
2019-05-09T03:01:40.561Z,9.64
2019-05-09T03:06:48.890Z,9.51
2019-05-09T03:11:54.147Z,9.54
2019-05-09T03:16:59.975Z,9.60
2019-05-09T03:22:12.871Z,9.59
2019-05-09T03:27:28.505Z,9.67
2019-05-09T03:32:32.888Z,9.76
2019-05-09T03:37:38.148Z,9.83
2019-05-09T03:42:43.937Z,9.96
2019-05-09T03:47:52.664Z,9.90
2019-05-09T03:52:58.066Z,10.02
2019-05-09T03:58:10.672Z,10.03
2019-05-09T04:03:19.931Z,10.15
2019-05-09T04:08:23.328Z,10.13
2019-05-09T04:13:30.418Z,10.31
2019-05-09T04:18:37.694Z,10.43
2019-05-09T04:23:42.817Z,10.47
2019-05-09T04:28:48.078Z,10.61
2019-05-09T04:33:53.879Z,10.58
2019-05-09T04:38:59.349Z,10.74
2019-05-09T04:44:14.186Z,10.64
2019-05-09T04:49:13.649Z,10.77
2019-05-09T04:54:19.385Z,10.98
2019-05-09T04:59:24.682Z,11.04
2019-05-09T05:04:30.553Z,11.24
2019-05-09T05:09:37.953Z,11.21
2019-05-09T05:14:43.003Z,11.26
2019-05-09T05:19:49.370Z,11.18
2019-05-09T05:24:59.567Z,11.37
2019-05-09T05:30:07.343Z,11.39
2019-05-09T05:35:17.918Z,11.69
2019-05-09T05:40:23.280Z,11.74
2019-05-09T05:45:30.620Z,11.79
2019-05-09T05:50:38.233Z,11.94
2019-05-09T05:55:43.343Z,12.06
2019-05-09T06:00:48.854Z,12.26
2019-05-09T06:05:54.715Z,12.40
2019-05-09T06:11:00.705Z,12.64
2019-05-09T06:16:08.439Z,12.74
2019-05-09T06:21:13.379Z,12.99
2019-05-09T06:26:19.025Z,13.02
2019-05-09T06:31:24.132Z,12.87
2019-05-09T06:36:29.550Z,12.92
2019-05-09T06:41:34.670Z,12.98
2019-05-09T06:46:41.694Z,13.00
2019-05-09T06:51:47.681Z,13.09
2019-05-09T06:56:53.357Z,13.46
2019-05-09T07:02:08.245Z,13.76
2019-05-09T07:07:14.998Z,13.73
2019-05-09T07:12:20.219Z,13.93
2019-05-09T07:17:31.887Z,13.84
2019-05-09T07:22:39.265Z,14.02
2019-05-09T07:27:48.327Z,14.24
2019-05-09T07:33:00.725Z,14.42
2019-05-09T07:38:08.274Z,14.59
2019-05-09T07:43:13.023Z,14.82
2019-05-09T07:48:18.217Z,14.60
2019-05-09T07:53:23.633Z,14.94
2019-05-09T07:58:29.112Z,14.96
2019-05-09T08:03:34.529Z,15.16
2019-05-09T08:08:40.100Z,15.61
2019-05-09T08:13:45.214Z,15.79
2019-05-09T08:18:51.118Z,15.76
2019-05-09T08:23:57.848Z,15.90
2019-05-09T08:29:03.390Z,16.10
2019-05-09T08:34:08.688Z,16.44
2019-05-09T08:39:14.121Z,16.68
2019-05-09T08:44:19.757Z,16.65
2019-05-09T08:49:28.651Z,16.58
2019-05-09T08:54:44.515Z,16.58
2019-05-09T08:59:50.864Z,16.89
2019-05-09T09:04:58.312Z,16.89
2019-05-09T09:10:04.555Z,16.84
2019-05-09T09:15:10.585Z,17.19
2019-05-09T09:20:18.194Z,16.90
2019-05-09T09:25:25.210Z,17.62
2019-05-09T09:30:30.744Z,17.53
2019-05-09T09:35:38.273Z,17.17
2019-05-09T09:40:43.852Z,17.38
2019-05-09T09:46:05.119Z,18.11
2019-05-09T09:50:58.013Z,17.86
2019-05-09T09:56:03.721Z,18.26
2019-05-09T10:01:10.865Z,18.18
2019-05-09T10:06:16.193Z,18.38
2019-05-09T10:11:21.745Z,18.32
2019-05-09T10:16:47.636Z,18.76
2019-05-09T10:21:53.799Z,18.96
2019-05-09T10:27:09.813Z,18.90
2019-05-09T10:32:18.205Z,18.69
2019-05-09T10:37:23.351Z,18.96
2019-05-09T10:42:30.498Z,18.22
2019-05-09T10:47:37.765Z,18.53
2019-05-09T10:52:43.374Z,18.39
2019-05-09T10:57:52.436Z,18.79
2019-05-09T11:02:58.376Z,19.13
2019-05-09T11:08:03.894Z,19.17
2019-05-09T11:13:09.738Z,19.23
2019-05-09T11:18:15.277Z,19.45
2019-05-09T11:23:20.537Z,19.63
2019-05-09T11:28:28.390Z,19.71
2019-05-09T11:33:33.227Z,18.87
2019-05-09T11:38:43.658Z,19.31
2019-05-09T11:43:45.454Z,19.12
2019-05-09T11:48:50.646Z,19.42
2019-05-09T11:53:58.164Z,19.77
2019-05-09T11:59:03.482Z,19.65
2019-05-09T12:04:08.710Z,19.55
2019-05-09T12:09:14.981Z,19.63
2019-05-09T12:14:20.505Z,19.07
2019-05-09T12:19:29.313Z,19.24
2019-05-09T12:24:33.027Z,19.22
2019-05-09T12:29:38.908Z,19.11
2019-05-09T12:34:44.257Z,18.87
2019-05-09T12:39:49.629Z,19.26
2019-05-09T12:44:55.177Z,19.16
2019-05-09T12:50:02.816Z,19.22
2019-05-09T12:55:08.365Z,19.37
2019-05-09T13:00:15.667Z,19.56
2019-05-09T13:05:21.002Z,19.03
2019-05-09T13:10:28.225Z,19.22
2019-05-09T13:15:38.486Z,19.15
2019-05-09T13:20:43.743Z,19.27
2019-05-09T13:25:50.340Z,19.18
2019-05-09T13:30:58.452Z,18.72
2019-05-09T13:36:03.779Z,18.84
2019-05-09T13:41:09.024Z,18.74
2019-05-09T13:46:14.525Z,18.98
2019-05-09T13:51:20.119Z,18.64
2019-05-09T13:56:27.803Z,18.49
2019-05-09T14:01:32.673Z,18.19
2019-05-09T14:06:38.952Z,18.13
2019-05-09T14:11:47.967Z,17.70
2019-05-09T14:16:52.828Z,17.65
2019-05-09T14:21:58.789Z,17.51
2019-05-09T14:27:05.144Z,17.12
2019-05-09T14:32:10.606Z,17.16
2019-05-09T14:37:17.994Z,17.08
2019-05-09T14:42:22.911Z,16.98
2019-05-09T14:47:28.789Z,16.86
2019-05-09T14:52:33.957Z,16.74
2019-05-09T14:57:39.098Z,16.38
2019-05-09T15:02:44.682Z,16.38
2019-05-09T15:07:53.589Z,16.32
2019-05-09T15:12:58.580Z,15.97
2019-05-09T15:18:05.042Z,15.96
2019-05-09T15:23:10.399Z,15.96
2019-05-09T15:28:17.611Z,15.82
2019-05-09T15:33:23.272Z,15.55
2019-05-09T15:38:29.163Z,15.55
2019-05-09T15:43:34.796Z,15.53
2019-05-09T15:48:40.563Z,15.38
2019-05-09T15:53:48.503Z,15.38
2019-05-09T15:58:53.033Z,15.20
2019-05-09T16:03:58.625Z,15.09
2019-05-09T16:09:08.003Z,14.82
2019-05-09T16:14:11.562Z,14.82
2019-05-09T16:19:16.826Z,14.66
2019-05-09T16:24:22.229Z,14.65
2019-05-09T16:29:30.369Z,14.47
2019-05-09T16:34:34.870Z,14.41
2019-05-09T16:39:40.171Z,14.38
2019-05-09T16:44:47.733Z,14.29
2019-05-09T16:49:52.960Z,14.29
2019-05-09T16:55:08.868Z,14.16
2019-05-09T17:00:18.388Z,14.29
2019-05-09T17:05:24.667Z,14.14
2019-05-09T17:10:29.814Z,14.18
2019-05-09T17:15:35.329Z,14.12
2019-05-09T17:20:55.025Z,14.18
2019-05-09T17:26:00.477Z,14.01
2019-05-09T17:31:07.938Z,13.92
2019-05-09T17:36:13.439Z,13.93
2019-05-09T17:41:19.016Z,13.72
2019-05-09T17:46:24.574Z,13.66
2019-05-09T17:51:33.906Z,13.61
2019-05-09T17:56:37.861Z,13.62
2019-05-09T18:01:44.904Z,13.52
2019-05-09T18:06:50.776Z,13.54
2019-05-09T18:11:57.822Z,13.68
2019-05-09T18:17:03.341Z,13.56
2019-05-09T18:22:09.069Z,13.54
2019-05-09T18:27:14.721Z,13.55
2019-05-09T18:32:38.297Z,13.57
2019-05-09T18:37:44.077Z,13.56
2019-05-09T18:42:49.399Z,13.42
2019-05-09T18:47:54.655Z,13.39
2019-05-09T18:53:00.215Z,13.29
2019-05-09T18:58:07.105Z,13.27
2019-05-09T19:03:12.533Z,13.18
2019-05-09T19:08:18.377Z,13.27
2019-05-09T19:13:23.574Z,13.31
2019-05-09T19:18:30.703Z,13.12
2019-05-09T19:23:36.110Z,13.15
2019-05-09T19:28:41.404Z,12.93
2019-05-09T19:33:46.853Z,13.06
2019-05-09T19:38:52.279Z,13.05
2019-05-09T19:43:57.619Z,13.08
2019-05-09T19:49:03.197Z,13.12
2019-05-09T19:54:09.070Z,13.02
2019-05-09T19:59:14.729Z,12.95
2019-05-09T20:04:19.994Z,12.95
2019-05-09T20:09:27.710Z,12.91
2019-05-09T20:14:34.949Z,12.92
2019-05-09T20:19:40.721Z,12.96
2019-05-09T20:24:46.216Z,12.97
2019-05-09T20:29:51.530Z,12.92
2019-05-09T20:34:56.692Z,12.64
2019-05-09T20:40:02.174Z,12.66
2019-05-09T20:45:08.462Z,12.73
2019-05-09T20:50:13.925Z,12.71
2019-05-09T20:55:19.230Z,12.75
2019-05-09T21:00:24.965Z,12.56
2019-05-09T21:05:30.469Z,12.77
2019-05-09T21:10:36.885Z,12.77
2019-05-09T21:15:42.463Z,12.71
2019-05-09T21:20:48.147Z,12.68
2019-05-09T21:25:53.673Z,12.68
2019-05-09T21:31:01.022Z,12.83
2019-05-09T21:36:06.415Z,12.76
2019-05-09T21:41:12.357Z,12.84
2019-05-09T21:46:18.841Z,12.78
2019-05-09T21:51:24.303Z,12.71
2019-05-09T21:56:30.055Z,12.70
2019-05-09T22:01:36.015Z,12.72
2019-05-09T22:06:41.380Z,12.68
2019-05-09T22:11:47.044Z,12.65
2019-05-09T22:16:53.343Z,12.75
2019-05-09T22:21:58.676Z,12.69
2019-05-09T22:27:04.679Z,12.69
2019-05-09T22:32:10.129Z,12.55
2019-05-09T22:37:15.495Z,12.64
2019-05-09T22:42:20.743Z,12.56
2019-05-09T22:47:26.209Z,12.57
2019-05-09T22:52:31.976Z,12.43
2019-05-09T22:57:37.686Z,12.53
2019-05-09T23:02:43.092Z,12.29
2019-05-09T23:07:48.326Z,12.23
2019-05-09T23:12:53.996Z,12.22
2019-05-09T23:17:59.190Z,12.16
2019-05-09T23:23:06.296Z,12.10
2019-05-09T23:28:11.703Z,12.01
2019-05-09T23:33:17.102Z,12.04
2019-05-09T23:38:22.659Z,12.03
2019-05-09T23:43:28.170Z,12.16
2019-05-09T23:48:33.483Z,12.16
2019-05-09T23:53:39.036Z,12.16
2019-05-09T23:59:02.734Z,12.23
